»·PEaware :: DCM2415 KLAX-KPSP

DCM2415 :: KLAX-KPSP

FLIGHT INFORMATION

Flight Status: Arrived
Operator: Unknown
More flights by this operator :: More flights under this callsign
Pilot: Paul P. (20696)
Aircraft: CESSNA 550 CITATION 2/S2/BRAVO
(C550)
More flights by this aircraft type
Origin: KLAX Los Angeles Intl
United States
Destination: KPSP Palm Springs Intl
United States
More flights between these airports :: More routes between these airports
Route: +LAXX1 TRM
File this flight plan on PilotEdge
Remarks: PBN / D1 DOF / 181117 REG / N6863 OPR / DCM RMK / TCAS SIMBRIEF
Altitude:
(Current/Filed)
25,000ft
Speed:
(Current/Filed)
332kts
Departed: 17-Nov-18 02:16 PM
Arrived: 17-Nov-18 02:57 PM
Distance/Time
Traveled:
95nm/0:41
Distance/Time
To Go:
Arrived

Flight Plot

Page will automatically refresh every two minutes.

Flight plan parsing failed; only flown route is shown


Map Options




Map Legend


Flown Route
Filed Route
Departure Airport
Arrival Airport
Navaid (VOR, NDB)
Fix

Horizontal Profiles

Position Reports

Time Latitude Longitude Heading Altitude Ground
Speed
17-Nov-18 14:02 33.934138 -118.395294 175 110ft 0kts
17-Nov-18 14:03 33.934138 -118.395294 175 110ft 0kts
17-Nov-18 14:04 33.934138 -118.395294 175 110ft 0kts
17-Nov-18 14:05 33.934138 -118.395294 175 110ft 0kts
17-Nov-18 14:06 33.934138 -118.395294 175 110ft 0kts
17-Nov-18 14:07 33.934138 -118.395294 175 110ft 0kts
17-Nov-18 14:08 33.934138 -118.395294 175 110ft 0kts
17-Nov-18 14:09 33.934138 -118.395294 175 110ft 0kts
17-Nov-18 14:10 33.934138 -118.395294 175 110ft 0kts
17-Nov-18 14:11 33.934138 -118.395294 175 110ft 0kts
17-Nov-18 14:12 33.934089 -118.395266 136 110ft 1kts
17-Nov-18 14:13 33.934233 -118.394436 82 110ft 0kts
17-Nov-18 14:14 33.935079 -118.392965 82 110ft 6kts
17-Nov-18 14:15 33.935516 -118.388757 82 110ft 13kts
17-Nov-18 14:16 33.935828 -118.385578 83 110ft 7kts
17-Nov-18 14:17 33.936186 -118.382973 52 110ft 3kts
17-Nov-18 14:18 33.936786 -118.382794 350 110ft 5kts
17-Nov-18 14:19 33.935780 -118.398594 264 453ft 118kts
17-Nov-18 14:20 33.932504 -118.441925 265 2699ft 134kts
17-Nov-18 14:21 33.928714 -118.487793 264 4647ft 138kts
17-Nov-18 14:22 33.901232 -118.534196 230 4991ft 194kts
17-Nov-18 14:23 33.860682 -118.579879 215 4989ft 204kts
17-Nov-18 14:24 33.806877 -118.579684 167 6651ft 203kts
17-Nov-18 14:25 33.751712 -118.560878 167 8729ft 211kts
17-Nov-18 14:26 33.694067 -118.540477 167 10535ft 220kts
17-Nov-18 14:27 33.635451 -118.516540 141 12258ft 230kts
17-Nov-18 14:28 33.625984 -118.441391 88 13843ft 237kts
17-Nov-18 14:29 33.626892 -118.367177 87 15734ft 222kts
17-Nov-18 14:30 33.627607 -118.291501 88 17093ft 229kts
17-Nov-18 14:31 33.628268 -118.213689 88 18374ft 236kts
17-Nov-18 14:32 33.628899 -118.133684 88 19579ft 242kts
17-Nov-18 14:33 33.629483 -118.052911 88 20695ft 247kts
17-Nov-18 14:34 33.630037 -117.968520 88 21765ft 253kts
17-Nov-18 14:35 33.630540 -117.882611 88 22767ft 258kts
17-Nov-18 14:36 33.630991 -117.795473 88 23704ft 262kts
17-Nov-18 14:37 33.631375 -117.707937 88 24901ft 269kts
17-Nov-18 14:38 33.631760 -117.608133 88 23369ft 318kts
17-Nov-18 14:39 33.632038 -117.504369 88 21657ft 327kts
17-Nov-18 14:40 33.632247 -117.398846 88 19932ft 324kts
17-Nov-18 14:41 33.632383 -117.273417 89 17818ft 316kts
17-Nov-18 14:42 33.632401 -117.169898 89 16018ft 307kts
17-Nov-18 14:43 33.632350 -117.083483 89 14471ft 299kts
17-Nov-18 14:44 33.632231 -116.991119 89 14017ft 275kts
17-Nov-18 14:45 33.632088 -116.915634 89 13814ft 274kts
17-Nov-18 14:46 33.631840 -116.818414 89 12015ft 292kts
17-Nov-18 14:47 33.631432 -116.706750 89 9911ft 282kts
17-Nov-18 14:48 33.631039 -116.615945 89 9000ft 256kts
17-Nov-18 14:49 33.630637 -116.529026 89 9001ft 265kts
17-Nov-18 14:50 33.630117 -116.443308 89 8999ft 265kts
17-Nov-18 14:51 33.629661 -116.370695 89 8983ft 265kts
17-Nov-18 14:52 33.629044 -116.281455 90 8980ft 265kts
17-Nov-18 14:53 33.657656 -116.189605 22 7715ft 259kts
17-Nov-18 14:54 33.709437 -116.231568 303 5920ft 245kts
17-Nov-18 14:55 33.748674 -116.298797 303 4114ft 247kts
17-Nov-18 14:56 33.781077 -116.355089 303 3046ft 230kts
17-Nov-18 14:57 33.796686 -116.423781 253 3226ft 181kts
17-Nov-18 14:58 33.795262 -116.469359 287 1558ft 154kts
17-Nov-18 14:59 33.821609 -116.500490 325 466ft 103kts
17-Nov-18 15:00 33.828695 -116.507057 284 430ft 4kts
17-Nov-18 15:01 33.828331 -116.508600 314 430ft 7kts

Navigation Log

Ident Type
Flight plan parsing failed, navigation log unavailable